Time;durP1;ratioP1;P1;durP2;ratioP2;P2;SDS_P1;SDS_P2;PMS_P1;PMS_P2;Temp;Humidity;BMP_temperature;BMP_pressure;BME280_temperature;BME280_humidity;BME280_pressure;Samples;Min_cycle;Max_cycle;Signal;HPM_P1;HPM_P2
2022/02/27 00:01:23;;;;;;;8.10;3.87;;;;;;;1.29;81.92;103773.88;5035033;28;20206;-74
2022/02/27 00:03:49;;;;;;;7.37;3.57;;;;;;;1.14;81.40;103773.16;5051394;28;20192;-74
2022/02/27 00:06:14;;;;;;;7.40;3.47;;;;;;;1.29;82.55;103767.16;5017572;28;20658;-74
2022/02/27 00:08:40;;;;;;;6.60;3.73;;;;;;;1.20;81.31;103773.81;5016297;28;20198;-75
2022/02/27 00:11:05;;;;;;;7.03;3.50;;;;;;;1.17;81.49;103770.06;5005714;28;20213;-75
2022/02/27 00:13:30;;;;;;;4.80;3.27;;;;;;;1.11;81.52;103772.88;5033011;28;20232;-75
2022/02/27 00:15:55;;;;;;;5.93;3.67;;;;;;;1.10;81.35;103781.16;5013395;28;20196;-75
2022/02/27 00:18:21;;;;;;;5.80;3.60;;;;;;;1.00;81.15;103780.94;5021043;28;20211;-75
2022/02/27 00:20:47;;;;;;;5.17;3.47;;;;;;;0.91;81.60;103779.97;5016652;28;20217;-75
2022/02/27 00:23:13;;;;;;;6.97;3.90;;;;;;;0.86;81.60;103780.25;5042836;28;20194;-75
2022/02/27 00:25:38;;;;;;;6.53;3.60;;;;;;;0.82;82.08;103784.03;5036678;28;20803;-74
2022/02/27 00:28:04;;;;;;;6.97;3.40;;;;;;;0.73;81.89;103789.78;5031848;28;20221;-74
2022/02/27 00:30:29;;;;;;;7.00;3.90;;;;;;;0.64;82.32;103799.75;5032189;28;20206;-75
2022/02/27 00:32:54;;;;;;;6.83;3.57;;;;;;;0.67;81.79;103787.47;5028461;28;20221;-74
2022/02/27 00:35:20;;;;;;;4.87;3.13;;;;;;;0.64;81.95;103784.63;5016915;28;20707;-74
2022/02/27 00:37:45;;;;;;;5.47;3.60;;;;;;;0.63;82.00;103782.84;5003560;28;20217;-74
2022/02/27 00:40:11;;;;;;;6.50;4.10;;;;;;;0.57;82.28;103778.03;5035062;28;20186;-74
2022/02/27 00:42:37;;;;;;;5.57;3.60;;;;;;;0.54;82.67;103784.38;5035893;28;20213;-74
2022/02/27 00:45:04;;;;;;;6.80;3.67;;;;;;;0.57;82.18;103786.34;5030574;28;20183;-74
2022/02/27 00:47:30;;;;;;;7.97;3.90;;;;;;;0.56;83.00;103777.91;5015053;28;20783;-74
2022/02/27 00:49:55;;;;;;;8.97;3.47;;;;;;;0.51;82.48;103781.56;5016750;28;20194;-75
2022/02/27 00:52:22;;;;;;;5.87;3.03;;;;;;;0.78;83.37;103779.41;4999894;28;20232;-74
2022/02/27 00:54:51;;;;;;;6.23;3.03;;;;;;;0.84;82.78;103767.47;5014680;28;20286;-75
2022/02/27 00:57:17;;;;;;;7.27;3.83;;;;;;;0.80;82.93;103775.44;4998809;28;20210;-74
2022/02/27 00:59:44;;;;;;;6.27;3.60;;;;;;;0.83;82.94;103773.22;5017428;28;20565;-75
2022/02/27 01:02:13;;;;;;;5.43;3.23;;;;;;;0.78;83.07;103776.00;5029061;28;20206;-75
2022/02/27 01:04:38;;;;;;;5.97;3.10;;;;;;;0.78;83.30;103774.38;5020637;28;20193;-74
2022/02/27 01:07:04;;;;;;;6.50;3.03;;;;;;;0.88;83.43;103772.09;5031147;28;20261;-75
2022/02/27 01:09:29;;;;;;;5.53;3.07;;;;;;;0.88;83.41;103771.19;5034055;28;20209;-74
2022/02/27 01:11:55;;;;;;;6.83;3.10;;;;;;;0.91;83.61;103774.94;5034037;28;20648;-74
2022/02/27 01:14:20;;;;;;;6.67;3.20;;;;;;;1.07;83.82;103779.94;5034420;28;20216;-75
2022/02/27 01:16:46;;;;;;;6.47;3.37;;;;;;;0.99;83.32;103770.69;5016840;28;20247;-74
2022/02/27 01:19:11;;;;;;;6.40;3.10;;;;;;;1.12;84.02;103764.56;5049493;28;20184;-74
2022/02/27 01:21:38;;;;;;;5.57;3.37;;;;;;;1.09;83.04;103778.50;5022470;28;20293;-75
2022/02/27 01:24:06;;;;;;;7.77;3.63;;;;;;;1.08;83.58;103776.69;5025956;28;20193;-74
2022/02/27 01:26:32;;;;;;;4.40;2.77;;;;;;;1.10;83.71;103780.28;5034297;28;20278;-74
2022/02/27 01:28:58;;;;;;;3.67;2.63;;;;;;;1.00;83.03;103777.53;5052027;28;20209;-74
2022/02/27 01:31:23;;;;;;;4.77;2.70;;;;;;;0.94;83.00;103780.28;5019981;28;20218;-75
2022/02/27 01:33:49;;;;;;;5.23;3.20;;;;;;;0.84;83.37;103782.59;5014483;28;20281;-74
2022/02/27 01:36:14;;;;;;;9.07;3.50;;;;;;;0.86;83.61;103778.59;5014630;28;20194;-74
2022/02/27 01:38:40;;;;;;;8.67;3.40;;;;;;;0.94;84.36;103785.34;5031543;28;20226;-75
2022/02/27 01:41:05;;;;;;;5.43;2.97;;;;;;;0.84;83.73;103780.06;5022122;28;20206;-75
2022/02/27 01:43:31;;;;;;;6.97;3.20;;;;;;;0.83;84.16;103777.38;5026207;28;20270;-74
2022/02/27 01:45:56;;;;;;;5.80;3.10;;;;;;;0.79;83.99;103781.22;5033593;28;20224;-74
2022/02/27 01:48:23;;;;;;;6.67;3.27;;;;;;;0.77;84.89;103796.91;5018109;28;20190;-75
2022/02/27 01:50:48;;;;;;;4.83;2.90;;;;;;;0.86;84.87;103785.28;5019482;28;20204;-75
2022/02/27 01:53:13;;;;;;;4.17;2.87;;;;;;;0.95;84.94;103798.81;5028013;28;20673;-74
2022/02/27 01:55:39;;;;;;;5.50;3.07;;;;;;;0.85;84.04;103786.00;5036321;28;20280;-74
2022/02/27 01:58:06;;;;;;;4.00;2.97;;;;;;;0.77;84.49;103786.84;5034279;28;20217;-74
2022/02/27 02:00:32;;;;;;;7.10;3.43;;;;;;;0.80;84.69;103788.03;5017931;28;20194;-75
2022/02/27 02:03:00;;;;;;;7.17;3.60;;;;;;;0.73;84.59;103787.25;5030390;28;20212;-74
2022/02/27 02:05:25;;;;;;;7.17;3.13;;;;;;;0.73;84.77;103787.25;5021495;28;20437;-75
2022/02/27 02:07:51;;;;;;;7.07;2.97;;;;;;;0.80;85.61;103789.66;5018668;28;20645;-74
2022/02/27 02:10:18;;;;;;;6.17;3.23;;;;;;;0.81;85.79;103782.25;5017688;28;20218;-74
2022/02/27 02:12:47;;;;;;;5.17;3.33;;;;;;;0.71;85.29;103783.66;5010441;28;20978;-74
2022/02/27 02:15:12;;;;;;;7.10;3.20;;;;;;;0.79;86.06;103787.88;5017357;28;20445;-75
2022/02/27 02:17:38;;;;;;;6.17;3.33;;;;;;;0.68;85.75;103788.38;5017061;28;20630;-76
2022/02/27 02:20:06;;;;;;;4.80;3.33;;;;;;;0.63;85.91;103795.44;5017635;28;20214;-75
2022/02/27 02:22:34;;;;;;;5.67;3.40;;;;;;;0.54;85.25;103793.59;5025975;28;20210;-73
2022/02/27 02:25:00;;;;;;;5.27;3.00;;;;;;;0.50;84.85;103788.97;5020881;28;20424;-74
2022/02/27 02:27:25;;;;;;;5.13;3.33;;;;;;;0.50;85.68;103788.97;5054634;28;20224;-76
2022/02/27 02:29:53;;;;;;;4.60;3.30;;;;;;;0.41;85.19;103786.31;5001157;28;20291;-75
2022/02/27 02:32:19;;;;;;;5.47;3.57;;;;;;;0.39;85.91;103785.28;5016936;28;20547;-74
2022/02/27 02:34:44;;;;;;;7.17;3.93;;;;;;;0.35;85.13;103783.16;5031600;28;20264;-74
2022/02/27 02:37:11;;;;;;;6.50;3.67;;;;;;;0.28;85.72;103788.28;5024991;28;20214;-75
2022/02/27 02:39:37;;;;;;;4.70;3.23;;;;;;;0.37;85.97;103784.25;5021393;28;20186;-75
2022/02/27 02:42:03;;;;;;;8.77;3.77;;;;;;;0.32;86.57;103787.88;5003097;28;20838;-74
2022/02/27 02:44:33;;;;;;;6.50;3.50;;;;;;;0.28;86.04;103790.81;5019165;28;20595;-74
2022/02/27 02:46:59;;;;;;;6.27;3.83;;;;;;;0.22;86.54;103789.25;5038462;28;20524;-74
2022/02/27 02:49:25;;;;;;;6.57;3.67;;;;;;;0.17;85.72;103788.75;5013305;28;20191;-74
2022/02/27 02:51:53;;;;;;;5.20;3.47;;;;;;;0.11;85.77;103788.09;5017151;28;20544;-74
2022/02/27 02:54:19;;;;;;;5.40;3.77;;;;;;;0.08;86.21;103800.34;5024443;28;20585;-74
2022/02/27 02:56:44;;;;;;;5.83;4.00;;;;;;;0.08;85.74;103798.75;5033872;28;20449;-74
2022/02/27 02:59:11;;;;;;;11.10;3.93;;;;;;;0.03;85.79;103798.09;5033533;28;20190;-74
2022/02/27 03:01:36;;;;;;;8.83;3.63;;;;;;;0.00;85.31;103791.09;5016265;28;20218;-75
2022/02/27 03:04:03;;;;;;;9.50;3.93;;;;;;;-0.08;85.42;103795.28;5036434;28;20978;-74
2022/02/27 03:06:30;;;;;;;6.87;3.77;;;;;;;-0.10;85.86;103789.19;5050661;28;20178;-76
2022/02/27 03:08:55;;;;;;;8.07;3.70;;;;;;;-0.10;86.02;103793.31;5022890;28;20718;-75
2022/02/27 03:11:21;;;;;;;7.60;4.30;;;;;;;-0.13;86.14;103796.41;5035608;28;20456;-74
2022/02/27 03:13:47;;;;;;;7.10;3.30;;;;;;;-0.21;85.73;103787.13;5036028;28;20187;-75
2022/02/27 03:16:13;;;;;;;6.43;3.67;;;;;;;-0.28;85.96;103793.81;5015748;28;20657;-74
2022/02/27 03:18:39;;;;;;;4.97;3.40;;;;;;;-0.32;86.01;103790.09;5041438;28;20560;-73
2022/02/27 03:21:04;;;;;;;4.80;3.23;;;;;;;-0.34;86.45;103791.56;5039185;28;20212;-74
2022/02/27 03:23:31;;;;;;;6.47;3.90;;;;;;;-0.34;86.04;103795.69;5041834;28;20265;-74
2022/02/27 03:25:58;;;;;;;7.37;3.60;;;;;;;-0.41;86.18;103795.75;5016254;28;20927;-75
2022/02/27 03:28:23;;;;;;;8.50;3.87;;;;;;;-0.41;86.08;103805.81;5053110;28;20440;-74
2022/02/27 03:30:50;;;;;;;8.30;4.07;;;;;;;-0.53;86.06;103792.78;5031952;28;20437;-74
2022/02/27 03:33:15;;;;;;;7.17;3.33;;;;;;;-0.49;86.05;103797.38;5043430;28;20204;-75
2022/02/27 03:35:41;;;;;;;8.07;3.93;;;;;;;-0.55;85.94;103798.38;5018591;28;20440;-74
2022/02/27 03:38:07;;;;;;;5.53;3.17;;;;;;;-0.61;86.43;103803.59;5021287;28;20222;-75
2022/02/27 03:40:32;;;;;;;5.50;3.43;;;;;;;-0.56;86.29;103799.97;5039071;28;20216;-74
2022/02/27 03:42:58;;;;;;;6.47;3.80;;;;;;;-0.59;85.90;103801.25;5018482;28;20217;-74
2022/02/27 03:45:23;;;;;;;8.07;3.67;;;;;;;-0.53;86.27;103802.84;5002698;28;20205;-75
2022/02/27 03:47:49;;;;;;;7.87;3.80;;;;;;;-0.57;86.75;103809.84;5024166;28;20194;-74
2022/02/27 03:50:16;;;;;;;5.23;3.67;;;;;;;-0.54;86.78;103803.53;5039223;28;20190;-75
2022/02/27 03:52:43;;;;;;;4.63;3.13;;;;;;;-0.47;87.69;103805.13;5032803;28;20612;-75
2022/02/27 03:55:10;;;;;;;5.37;2.90;;;;;;;-0.52;87.42;103804.63;5018105;28;20527;-75
2022/02/27 03:57:36;;;;;;;6.40;3.27;;;;;;;-0.50;88.38;103797.25;5009028;28;20488;-74
2022/02/27 04:00:05;;;;;;;9.27;3.30;;;;;;;-0.48;88.68;103805.84;5028016;28;20444;-74
2022/02/27 04:02:38;;;;;;;6.70;3.57;;;;;;;-0.45;89.02;103807.06;5051389;28;20259;-74
2022/02/27 04:05:04;;;;;;;7.47;3.60;;;;;;;-0.44;89.07;103805.47;5036855;28;20520;-74
2022/02/27 04:07:29;;;;;;;5.77;3.10;;;;;;;-0.53;88.90;103801.94;4997303;28;20344;-74
2022/02/27 04:09:55;;;;;;;8.10;3.37;;;;;;;-0.53;89.40;103799.41;5013583;28;20914;-74
2022/02/27 04:12:21;;;;;;;5.97;3.40;;;;;;;-0.53;89.41;103800.31;5037555;28;20213;-74
2022/02/27 04:14:46;;;;;;;8.70;3.53;;;;;;;-0.55;89.46;103801.75;5040970;28;20201;-74
2022/02/27 04:17:11;;;;;;;8.20;3.60;;;;;;;-0.55;89.95;103800.88;5029034;28;20683;-76
2022/02/27 04:19:36;;;;;;;6.20;3.10;;;;;;;-0.52;89.36;103791.13;5043028;28;20672;-74
2022/02/27 04:22:02;;;;;;;8.10;3.30;;;;;;;-0.58;89.72;103806.47;5049380;28;20205;-74
2022/02/27 04:24:27;;;;;;;6.20;3.57;;;;;;;-0.57;90.00;103797.28;5042005;28;20186;-75
2022/02/27 04:26:53;;;;;;;6.20;3.80;;;;;;;-0.54;89.95;103798.50;5013880;28;20380;-74
2022/02/27 04:29:18;;;;;;;8.20;3.70;;;;;;;-0.46;90.05;103790.19;5014906;28;20259;-75
2022/02/27 04:31:44;;;;;;;7.67;3.77;;;;;;;-0.37;90.81;103781.13;5033670;28;20659;-74
2022/02/27 04:34:09;;;;;;;7.90;3.60;;;;;;;-0.36;90.91;103782.03;5019210;28;20649;-76
2022/02/27 04:36:35;;;;;;;6.73;4.00;;;;;;;-0.40;90.78;103789.97;5029841;28;20673;-75
2022/02/27 04:39:00;;;;;;;9.53;3.60;;;;;;;-0.39;90.86;103791.75;5041518;28;20182;-74
2022/02/27 04:41:26;;;;;;;5.07;3.87;;;;;;;-0.39;90.84;103786.72;5028620;28;20212;-75
2022/02/27 04:43:51;;;;;;;7.63;4.20;;;;;;;-0.40;91.00;103790.84;5031285;28;20629;-74
2022/02/27 04:46:16;;;;;;;9.43;4.53;;;;;;;-0.48;90.68;103799.22;5031308;28;20549;-74
2022/02/27 04:48:42;;;;;;;7.30;4.50;;;;;;;-0.54;90.74;103796.00;5034157;28;20260;-74
2022/02/27 04:51:08;;;;;;;7.17;4.20;;;;;;;-0.55;90.81;103795.84;5025357;28;20364;-73
2022/02/27 04:53:34;;;;;;;8.17;4.37;;;;;;;-0.48;90.68;103795.78;4996702;28;20653;-73
2022/02/27 04:55:59;;;;;;;10.93;4.73;;;;;;;-0.43;91.26;103788.03;5030695;28;20273;-74
2022/02/27 04:58:25;;;;;;;9.07;5.40;;;;;;;-0.40;91.23;103785.81;5021166;28;20536;-75
2022/02/27 05:00:50;;;;;;;11.60;5.30;;;;;;;-0.38;91.36;103786.00;5020300;28;20285;-75
2022/02/27 05:03:16;;;;;;;12.33;5.40;;;;;;;-0.42;91.00;103782.25;5013126;28;20222;-74
2022/02/27 05:05:41;;;;;;;11.00;5.83;;;;;;;-0.40;92.23;103783.31;5013593;28;20246;-73
2022/02/27 05:08:06;;;;;;;10.90;6.13;;;;;;;-0.33;91.61;103785.78;4996449;28;20309;-75
2022/02/27 05:10:32;;;;;;;7.40;5.70;;;;;;;-0.33;91.67;103785.78;5046873;28;20185;-73
2022/02/27 05:12:57;;;;;;;10.37;4.97;;;;;;;-0.26;92.02;103787.34;5030838;28;20210;-75
2022/02/27 05:15:22;;;;;;;8.90;4.93;;;;;;;-0.23;92.02;103800.28;5034530;28;20229;-73
2022/02/27 05:17:48;;;;;;;11.03;4.63;;;;;;;-0.20;92.20;103801.50;5035262;28;20182;-74
2022/02/27 05:20:13;;;;;;;10.83;3.87;;;;;;;-0.27;92.45;103804.06;5048210;28;20606;-76
2022/02/27 05:22:44;;;;;;;6.87;4.10;;;;;;;-0.23;92.34;103807.84;5037960;28;20212;-73
2022/02/27 05:25:10;;;;;;;8.53;3.93;;;;;;;-0.31;91.85;103808.59;5054598;28;20190;-74
2022/02/27 05:27:35;;;;;;;8.80;4.57;;;;;;;-0.33;91.80;103808.44;5016794;28;20469;-75
2022/02/27 05:30:00;;;;;;;10.47;3.90;;;;;;;-0.37;91.75;103811.34;5047991;28;20794;-74
2022/02/27 05:32:26;;;;;;;5.80;3.63;;;;;;;-0.33;91.77;103815.06;5034250;28;20665;-74
2022/02/27 05:34:51;;;;;;;10.80;4.63;;;;;;;-0.32;91.66;103816.88;5034287;28;20835;-74
2022/02/27 05:37:16;;;;;;;9.80;4.60;;;;;;;-0.26;91.68;103812.53;5043273;28;20190;-74
2022/02/27 05:39:42;;;;;;;7.40;4.40;;;;;;;-0.27;92.33;103810.75;5024828;28;20190;-75
2022/02/27 05:42:07;;;;;;;7.40;4.30;;;;;;;-0.24;92.05;103811.97;5034992;28;20618;-74
2022/02/27 05:44:33;;;;;;;9.53;4.40;;;;;;;-0.27;92.28;103806.56;5037188;28;20843;-75
2022/02/27 05:46:59;;;;;;;8.07;4.30;;;;;;;-0.26;92.53;103820.94;5001492;28;20217;-74
2022/02/27 05:49:24;;;;;;;9.40;4.53;;;;;;;-0.32;92.46;103817.75;5027054;28;20476;-75
2022/02/27 05:51:49;;;;;;;9.67;4.73;;;;;;;-0.27;92.83;103824.19;5033937;28;21056;-75
2022/02/27 05:54:15;;;;;;;5.97;4.30;;;;;;;-0.29;92.31;103827.28;5039448;28;20249;-74
2022/02/27 05:56:40;;;;;;;8.67;4.30;;;;;;;-0.26;93.02;103827.63;5032736;28;20183;-74
2022/02/27 05:59:05;;;;;;;9.17;4.63;;;;;;;-0.21;92.67;103819.88;5018189;28;20193;-74
2022/02/27 06:01:31;;;;;;;10.93;5.03;;;;;;;-0.27;92.30;103824.19;5044131;28;20229;-75
2022/02/27 06:03:56;;;;;;;7.73;4.10;;;;;;;-0.35;92.47;103831.63;5016063;28;20274;-74
2022/02/27 06:06:22;;;;;;;9.00;4.43;;;;;;;-0.40;92.21;103836.16;5016592;28;20194;-74
2022/02/27 06:08:47;;;;;;;10.73;4.90;;;;;;;-0.31;92.07;103836.28;5033771;28;20308;-74
2022/02/27 06:11:13;;;;;;;7.67;4.53;;;;;;;-0.32;92.60;103837.91;5033491;28;20202;-74
2022/02/27 06:13:38;;;;;;;8.47;4.60;;;;;;;-0.27;92.26;103833.38;5015699;28;20194;-74
2022/02/27 06:16:03;;;;;;;7.00;4.53;;;;;;;-0.31;92.50;103827.09;5020223;28;20281;-74
2022/02/27 06:18:29;;;;;;;6.07;4.30;;;;;;;-0.35;92.82;103836.69;5033615;28;20179;-74
2022/02/27 06:20:54;;;;;;;11.70;4.30;;;;;;;-0.36;92.54;103839.94;5033243;28;20204;-74
2022/02/27 06:23:19;;;;;;;10.13;4.93;;;;;;;-0.35;92.23;103839.19;5015467;28;20194;-74
2022/02/27 06:25:45;;;;;;;8.93;4.30;;;;;;;-0.30;92.36;103833.03;5032529;28;20198;-74
2022/02/27 06:28:10;;;;;;;8.03;4.27;;;;;;;-0.31;92.61;103829.63;5033376;28;20213;-74
2022/02/27 06:30:35;;;;;;;9.43;4.47;;;;;;;-0.35;92.66;103837.59;5047204;28;20201;-73
2022/02/27 06:33:01;;;;;;;10.10;4.37;;;;;;;-0.35;92.47;103829.13;5044132;28;20205;-74
2022/02/27 06:35:27;;;;;;;8.00;4.07;;;;;;;-0.32;92.42;103832.00;5036562;28;20273;-75
2022/02/27 06:37:53;;;;;;;8.70;4.97;;;;;;;-0.33;92.20;103840.25;5052373;28;20716;-74
2022/02/27 06:40:19;;;;;;;12.47;4.80;;;;;;;-0.38;91.84;103838.84;5030238;28;20532;-74
2022/02/27 06:42:45;;;;;;;9.17;4.67;;;;;;;-0.34;92.07;103844.41;5031745;28;20472;-74
2022/02/27 06:45:12;;;;;;;7.83;4.73;;;;;;;-0.40;91.36;103841.19;5029834;28;21009;-74
2022/02/27 06:47:38;;;;;;;10.10;4.97;;;;;;;-0.41;92.01;103841.91;5030387;28;20253;-74
2022/02/27 06:50:04;;;;;;;11.53;5.17;;;;;;;-0.33;91.88;103843.66;5038048;28;20471;-73
2022/02/27 06:52:30;;;;;;;9.90;5.23;;;;;;;-0.29;91.84;103845.81;5050888;28;20201;-74
2022/02/27 06:54:55;;;;;;;8.43;4.47;;;;;;;-0.27;91.92;103843.47;5034383;28;20447;-74
2022/02/27 06:57:20;;;;;;;12.93;5.40;;;;;;;-0.17;91.99;103849.66;5034464;28;20243;-74
2022/02/27 06:59:46;;;;;;;7.93;5.20;;;;;;;-0.15;91.86;103863.31;5035048;28;20673;-73
2022/02/27 07:02:12;;;;;;;11.47;5.57;;;;;;;-0.17;91.86;103864.75;5051848;28;20216;-74
2022/02/27 07:04:38;;;;;;;11.07;6.50;;;;;;;-0.08;92.26;103862.38;5052970;28;20337;-75
2022/02/27 07:07:03;;;;;;;9.03;5.77;;;;;;;-0.07;92.39;103872.63;5034424;28;21077;-74
2022/02/27 07:09:29;;;;;;;14.30;6.30;;;;;;;0.02;91.70;103867.69;5035430;28;20174;-74
2022/02/27 07:11:54;;;;;;;12.40;5.27;;;;;;;0.10;91.09;103869.44;5019369;28;20214;-75
2022/02/27 07:14:20;;;;;;;13.90;5.87;;;;;;;0.22;91.18;103877.41;5032493;28;20189;-74
2022/02/27 07:16:46;;;;;;;10.63;5.27;;;;;;;0.31;91.39;103870.88;5015503;28;20281;-74
2022/02/27 07:19:11;;;;;;;9.67;5.20;;;;;;;0.44;91.21;103867.31;4999456;28;20527;-74
2022/02/27 07:21:37;;;;;;;9.87;5.20;;;;;;;0.60;90.90;103877.41;5023678;28;20702;-75
2022/02/27 07:24:03;;;;;;;10.73;4.80;;;;;;;0.72;90.58;103877.09;5032393;28;20245;-74
2022/02/27 07:26:28;;;;;;;9.57;5.33;;;;;;;0.86;89.88;103873.53;5034121;28;20193;-74
2022/02/27 07:28:54;;;;;;;10.60;4.67;;;;;;;1.06;90.14;103862.28;5032735;28;20206;-76
2022/02/27 07:31:19;;;;;;;9.07;5.13;;;;;;;1.15;89.68;103868.28;5032433;28;20217;-74
2022/02/27 07:33:45;;;;;;;10.17;5.00;;;;;;;1.39;89.42;103865.84;5032527;28;20190;-75
2022/02/27 07:36:11;;;;;;;9.60;4.87;;;;;;;1.62;89.21;103863.16;5034023;28;20200;-74
2022/02/27 07:38:36;;;;;;;9.80;5.93;;;;;;;1.77;87.67;103865.63;5033799;28;20253;-76
2022/02/27 07:41:02;;;;;;;8.00;5.10;;;;;;;1.90;87.51;103863.63;5016743;28;20649;-74
2022/02/27 07:43:27;;;;;;;9.93;5.10;;;;;;;1.93;86.75;103863.91;5034856;28;20199;-74
2022/02/27 07:45:52;;;;;;;10.60;4.90;;;;;;;2.09;86.88;103872.34;5033528;28;20614;-74
2022/02/27 07:48:18;;;;;;;10.17;4.60;;;;;;;2.28;86.59;103867.50;5019350;28;20244;-74
2022/02/27 07:50:43;;;;;;;10.13;4.63;;;;;;;2.30;85.22;103871.97;5041817;28;20664;-74
2022/02/27 07:53:08;;;;;;;7.73;5.00;;;;;;;2.40;85.21;103873.78;5050079;28;20182;-74
2022/02/27 07:55:34;;;;;;;8.53;4.70;;;;;;;2.73;84.73;103867.94;5039175;28;20226;-74
2022/02/27 07:57:59;;;;;;;11.67;5.63;;;;;;;2.73;83.63;103874.63;5030261;28;20290;-75
2022/02/27 08:00:25;;;;;;;12.20;5.33;;;;;;;2.89;83.13;103875.41;5034211;28;20214;-74
2022/02/27 08:02:51;;;;;;;7.83;5.10;;;;;;;3.39;82.23;103876.13;5000455;28;20217;-75
2022/02/27 08:05:17;;;;;;;8.40;4.53;;;;;;;3.45;82.05;103881.81;5000860;28;20190;-75
2022/02/27 08:07:43;;;;;;;7.87;4.47;;;;;;;3.31;80.40;103877.06;5017105;28;20332;-74
2022/02/27 08:10:10;;;;;;;11.00;5.33;;;;;;;3.53;81.02;103880.88;5016477;28;20194;-75
2022/02/27 08:12:39;;;;;;;9.53;5.70;;;;;;;3.62;80.25;103876.72;5016203;28;20213;-75
2022/02/27 08:15:05;;;;;;;10.83;5.47;;;;;;;3.91;79.69;103876.19;5047511;28;20860;-74
2022/02/27 08:17:30;;;;;;;10.27;5.20;;;;;;;4.26;78.11;103876.97;5035576;28;20247;-75
2022/02/27 08:19:56;;;;;;;9.60;5.70;;;;;;;4.40;77.23;103874.06;5035525;28;20185;-75
2022/02/27 08:22:21;;;;;;;12.13;5.27;;;;;;;4.24;77.60;103881.88;5035241;28;20213;-74
2022/02/27 08:24:46;;;;;;;8.47;5.33;;;;;;;4.49;77.18;103877.44;5053203;28;20188;-74
2022/02/27 08:27:12;;;;;;;9.60;5.20;;;;;;;4.67;76.04;103882.59;5052288;28;20217;-76
2022/02/27 08:29:37;;;;;;;9.70;6.00;;;;;;;4.62;76.32;103885.44;5035464;28;20193;-75
2022/02/27 08:32:03;;;;;;;11.40;6.27;;;;;;;4.66;75.47;103885.88;5034875;28;20219;-75
2022/02/27 08:34:30;;;;;;;9.37;5.03;;;;;;;5.31;74.56;103871.50;5034575;28;20285;-75
2022/02/27 08:36:55;;;;;;;10.77;6.30;;;;;;;5.01;74.55;103872.19;5052460;28;20198;-76
2022/02/27 08:39:21;;;;;;;8.87;5.40;;;;;;;5.54;73.74;103867.72;5033964;28;20193;-75
2022/02/27 08:41:46;;;;;;;15.33;8.07;;;;;;;5.34;73.29;103877.72;5034745;28;20213;-75
2022/02/27 08:44:11;;;;;;;10.10;6.23;;;;;;;5.51;71.87;103874.13;5035491;28;20541;-75
2022/02/27 08:46:38;;;;;;;9.03;6.10;;;;;;;5.57;71.31;103874.72;5052905;28;20655;-75
2022/02/27 08:49:06;;;;;;;8.23;5.43;;;;;;;5.66;71.42;103872.97;5029736;28;20206;-75
2022/02/27 08:51:31;;;;;;;10.03;6.10;;;;;;;5.89;71.53;103876.78;5036410;28;20225;-75
2022/02/27 08:53:56;;;;;;;9.60;5.50;;;;;;;6.02;69.62;103876.16;5037132;28;20653;-74
2022/02/27 08:56:21;;;;;;;10.43;6.30;;;;;;;6.09;70.17;103876.84;5003796;28;20555;-74
2022/02/27 08:58:47;;;;;;;10.83;5.53;;;;;;;6.68;70.60;103871.72;5037944;28;20179;-77
2022/02/27 09:01:12;;;;;;;11.73;6.20;;;;;;;6.37;68.67;103878.44;5003645;28;20240;-75
2022/02/27 09:03:37;;;;;;;13.63;8.20;;;;;;;6.98;68.30;103871.69;5019952;28;20190;-76
2022/02/27 09:06:03;;;;;;;11.43;6.17;;;;;;;7.15;67.33;103879.09;5019753;28;20613;-75
2022/02/27 09:08:29;;;;;;;9.73;6.10;;;;;;;7.68;65.85;103867.34;5035646;28;20610;-75
2022/02/27 09:10:54;;;;;;;9.63;6.97;;;;;;;7.60;64.78;103877.72;5036491;28;20186;-75
2022/02/27 09:13:19;;;;;;;11.23;6.70;;;;;;;7.93;64.41;103871.03;5018441;28;20190;-76
2022/02/27 09:15:45;;;;;;;9.70;7.43;;;;;;;8.93;60.95;103867.81;5035678;28;20333;-76
2022/02/27 09:18:10;;;;;;;10.03;6.83;;;;;;;11.71;53.87;103854.94;5035597;28;20186;-74
2022/02/27 09:20:36;;;;;;;9.07;6.63;;;;;;;14.61;44.89;103833.28;5034565;28;20189;-74
2022/02/27 09:23:01;;;;;;;7.60;5.97;;;;;;;13.73;45.10;103847.41;5033431;28;20202;-74
2022/02/27 09:25:27;;;;;;;7.60;6.23;;;;;;;14.60;43.55;103840.94;5033282;28;20218;-74
2022/02/27 09:27:52;;;;;;;8.03;6.13;;;;;;;16.60;39.13;103835.94;5015291;28;20304;-74
2022/02/27 09:30:18;;;;;;;8.90;6.80;;;;;;;15.68;39.56;103844.66;5015560;28;20174;-73
2022/02/27 09:32:43;;;;;;;9.43;6.47;;;;;;;15.49;39.73;103844.59;5032600;28;20293;-75
2022/02/27 09:35:10;;;;;;;8.97;6.27;;;;;;;14.98;41.28;103851.47;5034221;28;20186;-75
2022/02/27 09:37:36;;;;;;;10.00;6.90;;;;;;;16.14;39.18;103835.59;5014981;28;20688;-74
2022/02/27 09:40:04;;;;;;;9.37;7.07;;;;;;;16.43;39.19;103834.31;4998416;28;20195;-75
2022/02/27 09:42:30;;;;;;;9.70;6.90;;;;;;;16.97;37.77;103840.13;5032516;28;20732;-74
2022/02/27 09:44:57;;;;;;;11.33;7.30;;;;;;;16.29;38.62;103841.44;5015304;28;20954;-76
2022/02/27 09:47:23;;;;;;;9.00;7.20;;;;;;;17.54;36.67;103829.53;5018010;28;20713;-76
2022/02/27 09:49:49;;;;;;;10.87;7.73;;;;;;;17.00;37.12;103837.66;5022383;28;20200;-75
2022/02/27 09:52:16;;;;;;;12.27;8.90;;;;;;;16.43;38.17;103832.63;5033717;28;20218;-76
2022/02/27 09:54:42;;;;;;;12.00;9.60;;;;;;;17.66;37.16;103826.53;5000444;28;20187;-75
2022/02/27 09:57:12;;;;;;;9.13;8.10;;;;;;;17.27;37.00;103824.97;5032479;28;20255;-77
2022/02/27 09:59:38;;;;;;;11.67;8.83;;;;;;;18.83;34.86;103815.31;5032048;28;20212;-78
2022/02/27 10:02:04;;;;;;;9.30;8.00;;;;;;;19.47;33.41;103809.63;5046636;28;20692;-75
2022/02/27 10:04:38;;;;;;;9.20;6.97;;;;;;;18.78;34.24;103815.13;5052189;28;20186;-74
2022/02/27 10:07:12;;;;;;;8.33;7.13;;;;;;;20.04;34.75;103810.47;5051218;28;20193;-70
2022/02/27 10:09:38;;;;;;;7.93;7.10;;;;;;;17.21;34.83;103820.41;5051985;28;20190;-70
2022/02/27 10:12:19;;;;;;;9.90;7.30;;;;;;;19.55;34.30;103813.34;5052866;28;20245;-69
2022/02/27 10:14:56;;;;;;;9.90;7.43;;;;;;;18.32;34.36;103821.25;5036109;28;20189;-74
2022/02/27 10:17:28;;;;;;;8.27;6.57;;;;;;;19.78;32.02;103804.50;5035529;28;20177;-75
2022/02/27 10:19:54;;;;;;;9.87;7.57;;;;;;;19.05;32.94;103818.66;5052065;28;20171;-75
2022/02/27 10:22:28;;;;;;;10.30;7.70;;;;;;;20.38;31.58;103806.25;5034574;28;20275;-74
2022/02/27 10:24:53;;;;;;;10.77;7.93;;;;;;;19.74;32.30;103810.47;5034407;28;20181;-73
2022/02/27 10:27:21;;;;;;;8.52;7.15;;;;;;;22.03;29.37;103796.31;5034989;28;20228;-75
2022/02/27 10:29:46;;;;;;;9.48;7.07;;;;;;;22.78;28.53;103796.88;5034341;28;20194;-75
2022/02/27 10:32:12;;;;;;;8.65;6.47;;;;;;;22.13;29.08;103796.53;5034675;28;20232;-75
2022/02/27 10:34:38;;;;;;;8.40;6.90;;;;;;;20.86;30.43;103799.69;5018150;28;20186;-74
2022/02/27 10:37:14;;;;;;;8.75;6.78;;;;;;;21.20;30.28;103811.84;5018746;28;20224;-73
2022/02/27 10:39:48;;;;;;;8.90;7.47;;;;;;;21.72;29.19;103801.75;5051913;28;20229;-74
2022/02/27 10:42:25;;;;;;;7.70;6.55;;;;;;;22.67;28.65;103798.41;5051133;28;20560;-73
2022/02/27 10:45:05;;;;;;;7.45;6.03;;;;;;;23.65;26.93;103793.84;5034819;28;20632;-76
2022/02/27 10:47:34;;;;;;;7.80;5.93;;;;;;;23.21;27.30;103797.56;5015095;28;20221;-74
2022/02/27 10:50:02;;;;;;;8.23;6.20;;;;;;;22.63;27.71;103797.47;5014852;28;20195;-73
2022/02/27 10:52:30;;;;;;;9.85;6.53;;;;;;;22.64;28.80;103798.38;5034950;28;20296;-74
2022/02/27 10:55:04;;;;;;;8.13;6.60;;;;;;;23.89;26.70;103799.38;5028902;28;20197;-73
2022/02/27 10:57:45;;;;;;;8.77;6.72;;;;;;;21.49;29.59;103800.34;5039738;28;20201;-76
2022/02/27 11:00:18;;;;;;;8.80;7.53;;;;;;;21.37;29.88;103797.47;5024781;28;20248;-73
2022/02/27 11:02:46;;;;;;;8.02;5.95;;;;;;;23.36;27.31;103783.84;5052589;28;20688;-76
2022/02/27 11:05:15;;;;;;;9.30;6.25;;;;;;;22.10;28.47;103790.34;5038345;28;20196;-75
2022/02/27 11:07:44;;;;;;;9.60;6.75;;;;;;;22.00;28.80;103785.78;5036258;28;20680;-74
2022/02/27 11:10:13;;;;;;;8.88;7.10;;;;;;;21.89;28.51;103784.72;5019425;28;20734;-74
2022/02/27 11:12:39;;;;;;;8.98;6.68;;;;;;;23.83;26.94;103780.09;5056015;28;20205;-75
2022/02/27 11:15:06;;;;;;;8.57;6.72;;;;;;;26.69;24.03;103760.06;5039140;28;20185;-74
2022/02/27 11:17:32;;;;;;;8.40;6.70;;;;;;;26.36;24.16;103763.53;5038387;28;20206;-74
2022/02/27 11:20:00;;;;;;;7.85;6.47;;;;;;;24.04;25.67;103778.63;5057444;28;20323;-74
2022/02/27 11:22:27;;;;;;;8.48;6.68;;;;;;;25.13;24.68;103765.63;5024446;28;20767;-74